Herald, CA

4:38 AM PST on January 27, 2015 (GMT -0800)
Cosumnes River | Change Station
CLOSE
Current Station
Personal Weather Station
Location: Wilton, CA
Elevation: 95 ft
Nearby Weather Stations

Elev 95 ft 38.44 °N, 121.23 °W | Updated 3 minutes ago

Mostly Cloudy
Mostly Cloudy
48.5 °F
Feels Like 48 °F
N
1.0
Wind Variable Wind from SSE
Gusts 2.0 mph

Today
High -- | Low -- °F
--% Chance of Precip.
Yesterday
High -- | Low -- °F
Precip. -- in
7:13 AM 5:21 PM
First Quarter, 53% visible
Pressure 30.08 in
Visibility 6.0 miles
Clouds Scattered Clouds 15000 ft
Windchill 48 °F
Dew Point 47 °F
Humidity 93%
Rainfall 0.00 in
Snow Depth Not available.
UV 0 out of 12
Pollen 5.80 out of 12
Air Quality Not available.
Flu Activity Not available.
METAR KMHR 271052Z 19004KT 6SM BR SCT150 09/09 A3008

More Conditions Fewer Conditions

Pressure 30.08 in
Visibility 6.0 miles
Clouds Scattered Clouds 15000 ft
Windchill 48 °F
Dew Point 47 °F
Humidity 93%
Rainfall 0.00 in
Snow Depth Not available.
UV 0 out of 12
Pollen 5.80 out of 12
Air Quality Not available.
Flu Activity Not available.
METAR KMHR 271052Z 19004KT 6SM BR SCT150 09/09 A3008

More Conditions Fewer Conditions

10-Day Weather Forecast

Almanac

Astronomy

Jan. 27, 2015 Rise Set
Actual Time
Civil Twilight
Nautical Twilight
Astronomical Twilight
Moon
Length of Visible Light
Length of Day
Tomorrow will be .
, % of the Moon is Illuminated

Today's Extremes

State Highs State Lows

Community

WunderPhotos

Upload Photos

1,790,591 photos uploaded!

WunderBlogs® & News

Nearby

Air Quality

  Air Quality AQ Index Pollutant
Not available.

Snow Depth

Station Depth Elevation

Earthquake Activity

City Distance Mag. Time & Date
Minimum magnitude displayed is 2.5.

Coastal Water Temperatures

Place Temperature

Nearby Weather Stations